sensor_id;sensor_type;location;lat;lon;timestamp;pressure;altitude;pressure_sealevel;temperature;humidity
15558;BME280;7880;50.110;9.372;2023-05-11T00:03:28;9.685632406320655;;;9.5;100.0
15558;BME280;7880;50.110;9.372;2023-05-11T00:08:33;9.418393367622048;;;9.312;100.0
15558;BME280;7880;50.110;9.372;2023-05-11T00:13:35;9.645294385828311;;;9.437;100.0
15558;BME280;7880;50.110;9.372;2023-05-11T00:18:41;9.559576154127717;;;9.375;100.0
15558;BME280;7880;50.110;9.372;2023-05-11T00:23:46;9.579745142254978;;;9.5;100.0
15558;BME280;7880;50.110;9.372;2023-05-11T00:28:58;9.463773524115094;;;9.312;100.0
15558;BME280;7880;50.110;9.372;2023-05-11T00:34:03;9.241915205359692;;;9.187;100.0
15558;BME280;7880;50.110;9.372;2023-05-11T00:39:06;9.221746295230696;;;9.062;100.0
15558;BME280;7880;50.110;9.372;2023-05-11T00:44:11;9.35788652896881;;;9.125;100.0
15558;BME280;7880;50.110;9.372;2023-05-11T00:49:16;9.292337501054863;;;9.062;100.0
15558;BME280;7880;50.110;9.372;2023-05-11T00:54:21;9.110817372758174;;;9.062;100.0
15558;BME280;7880;50.110;9.372;2023-05-11T00:59:24;9.241915205359692;;;9.125;100.0
15558;BME280;7880;50.110;9.372;2023-05-11T01:04:28;9.246957433619537;;;9.125;100.0
15558;BME280;7880;50.110;9.372;2023-05-11T01:09:54;9.302421963686356;;;9.187;100.0
15558;BME280;7880;50.110;9.372;2023-05-11T01:14:55;9.14611292371992;;;9.062;100.0
15558;BME280;7880;50.110;9.372;2023-05-11T01:19:47;8.989804163441296;;;8.937;100.0
15558;BME280;7880;50.110;9.372;2023-05-11T01:25:00;9.282253039587522;;;9.125;100.0
15558;BME280;7880;50.110;9.372;2023-05-11T01:30:18;8.863748915330508;;;8.687;100.0
15558;BME280;7880;50.110;9.372;2023-05-11T01:35:08;8.838537887536223;;;8.75;100.0
15558;BME280;7880;50.110;9.372;2023-05-11T01:40:12;8.949466464255238;;;8.812;100.0
15558;BME280;7880;50.110;9.372;2023-05-11T01:45:12;8.808284663787344;;;8.75;100.0
15558;BME280;7880;50.110;9.372;2023-05-11T01:50:17;8.949466464255238;;;8.812;100.0
15558;BME280;7880;50.110;9.372;2023-05-11T01:55:27;9.015015234891326;;;8.875;100.0
15558;BME280;7880;50.110;9.372;2023-05-11T02:00:27;9.110817372758174;;;9.0;100.0
15558;BME280;7880;50.110;9.372;2023-05-11T02:05:32;8.65701870220364;;;8.687;100.0
15558;BME280;7880;50.110;9.372;2023-05-11T02:10:37;8.762904847809114;;;8.625;100.0
15558;BME280;7880;50.110;9.372;2023-05-11T02:15:41;8.662060896703043;;;8.687;100.0
15558;BME280;7880;50.110;9.372;2023-05-11T02:20:47;8.566259250981966;;;8.5;100.0
15558;BME280;7880;50.110;9.372;2023-05-11T02:25:55;8.687271873565624;;;8.562;100.0
15558;BME280;7880;50.110;9.372;2023-05-11T02:31:08;8.586428009771044;;;8.5;100.0
15558;BME280;7880;50.110;9.372;2023-05-11T02:36:03;8.616681156685809;;;8.5;100.0
15558;BME280;7880;50.110;9.372;2023-05-11T02:41:08;8.621723348856904;;;8.437;100.0
15558;BME280;7880;50.110;9.372;2023-05-11T02:46:13;8.742736048274674;;;8.625;100.0
15558;BME280;7880;50.110;9.372;2023-05-11T02:51:17;8.470457710325718;;;8.437;100.0
15558;BME280;7880;50.110;9.372;2023-05-11T02:56:17;8.38474063142785;;;8.375;100.0
15558;BME280;7880;50.110;9.372;2023-05-11T03:01:22;8.480542078078724;;;8.375;100.0
15558;BME280;7880;50.110;9.372;2023-05-11T03:06:26;8.324234508728841;;;8.25;100.0
15558;BME280;7880;50.110;9.372;2023-05-11T03:11:33;8.34944538809359;;;8.25;100.0
15558;BME280;7880;50.110;9.372;2023-05-11T03:16:36;8.470457710325718;;;8.312;100.0
15558;BME280;7880;50.110;9.372;2023-05-11T03:21:41;8.394824989285553;;;8.25;100.0
15558;BME280;7880;50.110;9.372;2023-05-11T03:26:45;8.344403211638564;;;8.25;100.0
15558;BME280;7880;50.110;9.372;2023-05-11T03:31:49;8.21330672596232;;;8.187;100.0
15558;BME280;7880;50.110;9.372;2023-05-11T03:36:55;8.31415015902021;;;8.187;100.0
15558;BME280;7880;50.110;9.372;2023-05-11T03:42:01;8.29902363664005;;;8.187;100.0
15558;BME280;7880;50.110;9.372;2023-05-11T03:47:06;8.273812771827215;;;8.187;100.0
15558;BME280;7880;50.110;9.372;2023-05-11T03:52:09;8.329276684019714;;;8.25;100.0
15558;BME280;7880;50.110;9.372;2023-05-11T03:57:12;8.062041794654215;;;8.0;100.0
15558;BME280;7880;50.110;9.372;2023-05-11T04:02:15;8.026746681705117;;;7.937;100.0
15558;BME280;7880;50.110;9.372;2023-05-11T04:07:19;8.21330672596232;;;8.125;100.0
15558;BME280;7880;50.110;9.372;2023-05-11T04:12:35;8.072126115259016;;;8.062;100.0
15558;BME280;7880;50.110;9.372;2023-05-11T04:17:32;7.941030038200552;;;7.937;100.0
15558;BME280;7880;50.110;9.372;2023-05-11T04:22:38;8.339361035474576;;;8.187;100.0
15558;BME280;7880;50.110;9.372;2023-05-11T04:27:37;8.420035889022984;;;8.312;100.0
15558;BME280;7880;50.110;9.372;2023-05-11T04:32:41;8.5360061215295;;;8.437;100.0
15558;BME280;7880;50.110;9.372;2023-05-11T04:37:46;8.646934314077953;;;8.562;100.0
15558;BME280;7880;50.110;9.372;2023-05-11T04:42:50;8.616681156685809;;;8.562;100.0
15558;BME280;7880;50.110;9.372;2023-05-11T04:47:54;8.631807734072208;;;8.562;100.0
15558;BME280;7880;50.110;9.372;2023-05-11T04:53:00;8.702398463175632;;;8.625;100.0
15558;BME280;7880;50.110;9.372;2023-05-11T04:58:02;8.868791121762479;;;8.812;100.0
15558;BME280;7880;50.110;9.372;2023-05-11T05:03:06;8.96963531151996;;;8.875;100.0
15558;BME280;7880;50.110;9.372;2023-05-11T05:08:10;9.141070701280842;;;9.062;100.0
15558;BME280;7880;50.110;9.372;2023-05-11T05:13:23;9.287295270175672;;;9.187;100.0
15558;BME280;7880;50.110;9.372;2023-05-11T05:18:20;9.403266654029721;;;9.312;100.0
15558;BME280;7880;50.110;9.372;2023-05-11T05:23:25;9.463773524115094;;;9.5;100.0
15558;BME280;7880;50.110;9.372;2023-05-11T05:28:30;9.62008313247934;;;9.5;100.0
15558;BME280;7880;50.110;9.372;2023-05-11T05:33:34;9.816731101559707;;;9.812;100.0
15558;BME280;7880;50.110;9.372;2023-05-11T05:38:38;9.907491851976374;;;9.875;100.0
15558;BME280;7880;50.110;9.372;2023-05-11T05:43:42;9.947829993540655;;;9.937;100.0
15558;BME280;7880;50.110;9.372;2023-05-11T05:48:56;9.927660920430208;;;9.937;100.0
15558;BME280;7880;50.110;9.372;2023-05-11T05:53:51;9.912534118653275;;;9.937;100.0
15558;BME280;7880;50.110;9.372;2023-05-11T05:58:57;10.04867542894208;;;10.0;100.0
15558;BME280;7880;50.110;9.372;2023-05-11T06:03:58;10.119267302990192;;;10.125;100.0
15558;BME280;7880;50.110;9.372;2023-05-11T06:09:04;10.19490151705686;;;10.125;100.0
15558;BME280;7880;50.110;9.372;2023-05-11T06:14:07;10.169690105092013;;;10.187;100.0
15558;BME280;7880;50.110;9.372;2023-05-11T06:19:12;10.083971358835697;;;10.062;100.0
15558;BME280;7880;50.110;9.372;2023-05-11T06:24:15;10.018421786098042;;;10.062;100.0
15558;BME280;7880;50.110;9.372;2023-05-11T06:29:32;10.189859234081814;;;10.187;100.0
15558;BME280;7880;50.110;9.372;2023-05-11T06:34:24;10.245324362814426;;;10.187;100.0
15558;BME280;7880;50.110;9.372;2023-05-11T06:39:34;10.285662660375237;;;10.187;100.0
15558;BME280;7880;50.110;9.372;2023-05-11T06:44:37;10.260451222216943;;;10.312;100.0
15558;BME280;7880;50.110;9.372;2023-05-11T06:49:40;10.452058334700997;;;10.437;100.0
15558;BME280;7880;50.110;9.372;2023-05-11T06:54:44;10.447016036882996;;;10.375;100.0
15558;BME280;7880;50.110;9.372;2023-05-11T06:59:47;10.300789526762674;;;10.312;100.0
15558;BME280;7880;50.110;9.372;2023-05-11T07:04:55;10.457100632810034;;;10.437;100.0
15558;BME280;7880;50.110;9.372;2023-05-11T07:10:00;10.487354427576065;;;10.5;100.0
15558;BME280;7880;50.110;9.372;2023-05-11T07:15:00;10.527692836895586;;;10.5;100.0
15558;BME280;7880;50.110;9.372;2023-05-11T07:20:06;10.653750486072386;;;10.625;100.0
15558;BME280;7880;50.110;9.372;2023-05-11T07:25:09;10.694088972226018;;;10.625;100.0
15558;BME280;7880;50.110;9.372;2023-05-11T07:30:13;10.744512106111506;;;10.75;100.0
15558;BME280;7880;50.110;9.372;2023-05-11T07:35:17;10.860485424497165;;;10.75;100.0
15558;BME280;7880;50.110;9.372;2023-05-11T07:40:23;10.996628212096402;;;10.937;100.0
15558;BME280;7880;50.110;9.372;2023-05-11T07:45:29;10.991585882846266;;;10.937;100.0
15558;BME280;7880;50.110;9.372;2023-05-11T07:50:34;11.067220852157334;;;11.0;100.0
15558;BME280;7880;50.110;9.372;2023-05-11T07:55:36;11.157982901768992;;;11.125;100.0
15558;BME280;7880;50.110;9.372;2023-05-11T08:00:40;11.243702701875009;;;11.187;100.0
15558;BME280;7880;50.110;9.372;2023-05-11T08:05:44;11.213448645174504;;;11.187;100.0
15558;BME280;7880;50.110;9.372;2023-05-11T08:10:48;11.062178518832662;;;11.125;100.0
15558;BME280;7880;50.110;9.372;2023-05-11T08:15:55;11.233618015144021;;;11.187;100.0
15558;BME280;7880;50.110;9.372;2023-05-11T08:21:08;11.278999114601174;;;11.25;100.0
15558;BME280;7880;50.110;9.372;2023-05-11T08:26:01;11.470608461095253;;;11.375;100.0
15558;BME280;7880;50.110;9.372;2023-05-11T08:31:06;11.596667470876127;;;11.5;100.0
15558;BME280;7880;50.110;9.372;2023-05-11T08:36:12;11.50086260685348;;;11.5;100.0
15558;BME280;7880;50.110;9.372;2023-05-11T08:41:19;11.541201484162594;;;11.5;100.0
15558;BME280;7880;50.110;9.372;2023-05-11T08:46:20;11.621879294660175;;;11.562;100.0
15558;BME280;7880;50.110;9.372;2023-05-11T08:51:23;11.823574146867031;;;11.75;100.0
15558;BME280;7880;50.110;9.372;2023-05-11T08:56:28;11.969803205900826;;;11.875;100.0
15558;BME280;7880;50.110;9.372;2023-05-11T09:01:37;11.909294600063003;;;11.812;100.0
15558;BME280;7880;50.110;9.372;2023-05-11T09:06:37;12.242092450801284;;;12.125;100.0
15558;BME280;7880;50.110;9.372;2023-05-11T09:11:44;12.211838048347271;;;12.125;100.0
15558;BME280;7880;50.110;9.372;2023-05-11T09:16:50;12.307643692061538;;;12.187;100.0
15558;BME280;7880;50.110;9.372;2023-05-11T09:22:04;12.499255294684554;;;12.437;100.0
15558;BME280;7880;50.110;9.372;2023-05-11T09:27:13;12.373194982507266;;;12.312;100.0
15558;BME280;7880;50.110;9.372;2023-05-11T09:32:01;12.368152573803673;;;12.312;100.0
15558;BME280;7880;50.110;9.372;2023-05-11T09:37:15;12.237050049664685;;;12.25;100.0
15558;BME280;7880;50.110;9.372;2023-05-11T09:42:14;12.88247976070852;;;12.687;100.0
15558;BME280;7880;50.110;9.372;2023-05-11T09:47:19;12.423619085550309;;;12.312;100.0
15558;BME280;7880;50.110;9.372;2023-05-11T09:52:44;12.499255294684554;;;12.375;100.0
15558;BME280;7880;50.110;9.372;2023-05-11T09:57:29;12.297558882512385;;;12.312;100.0
15558;BME280;7880;50.110;9.372;2023-05-11T10:02:32;12.267304460849846;;;12.187;100.0
15558;BME280;7880;50.110;9.372;2023-05-11T10:07:37;12.110990115837193;;;12.125;100.0
15558;BME280;7880;50.110;9.372;2023-05-11T10:12:45;12.353025349439122;;;12.25;100.0
15558;BME280;7880;50.110;9.372;2023-05-11T10:17:57;12.075693366961787;;;12.0;100.0
15558;BME280;7880;50.110;9.372;2023-05-11T10:22:54;12.040396632347257;;;12.0;100.0
15558;BME280;7880;50.110;9.372;2023-05-11T10:27:57;12.307643692061538;;;12.25;100.0
15558;BME280;7880;50.110;9.372;2023-05-11T10:33:01;12.448831147985766;;;12.375;100.0
15558;BME280;7880;50.110;9.372;2023-05-11T10:38:07;12.494212878705003;;;12.375;100.0
15558;BME280;7880;50.110;9.372;2023-05-11T10:43:31;12.71103702863329;;;12.5;100.0
15558;BME280;7880;50.110;9.372;2023-05-11T10:48:47;12.448831147985766;;;12.437;100.0
15558;BME280;7880;50.110;9.372;2023-05-11T10:54:12;12.423619085550309;;;12.375;100.0
15558;BME280;7880;50.110;9.372;2023-05-11T10:59:11;12.564806728903203;;;12.562;100.0
15558;BME280;7880;50.110;9.372;2023-05-11T11:04:06;12.71103702863329;;;12.687;100.0
15558;BME280;7880;50.110;9.372;2023-05-11T11:09:13;12.796758352615871;;;12.687;100.0
15558;BME280;7880;50.110;9.372;2023-05-11T11:14:18;12.721121885912726;;;12.687;100.0
15558;BME280;7880;50.110;9.372;2023-05-11T11:19:35;12.433703909651376;;;12.437;100.0
15558;BME280;7880;50.110;9.372;2023-05-11T11:24:53;12.544637051597238;;;12.5;100.0
15558;BME280;7880;50.110;9.372;2023-05-11T11:29:35;12.579933989938581;;;12.5;100.0
15558;BME280;7880;50.110;9.372;2023-05-11T11:34:40;12.3580677572696;;;12.375;100.0
15558;BME280;7880;50.110;9.372;2023-05-11T11:39:48;12.413534262613393;;;12.312;100.0
15558;BME280;7880;50.110;9.372;2023-05-11T11:45:25;12.635400636144913;;;12.562;100.0
15558;BME280;7880;50.110;9.372;2023-05-11T11:50:10;12.569849148957292;;;12.5;100.0
15558;BME280;7880;50.110;9.372;2023-05-11T11:55:43;12.317728502774845;;;12.375;100.0
15558;BME280;7880;50.110;9.372;2023-05-11T12:00:29;12.413534262613393;;;12.312;100.0
15558;BME280;7880;50.110;9.372;2023-05-11T12:05:33;12.584976410865783;;;12.562;100.0
15558;BME280;7880;50.110;9.372;2023-05-11T12:10:36;12.635400636144913;;;12.562;100.0
15558;BME280;7880;50.110;9.372;2023-05-11T12:15:41;12.433703909651376;;;12.375;100.0
15558;BME280;7880;50.110;9.372;2023-05-11T12:20:46;12.6454854846932;;;12.625;100.0
15558;BME280;7880;50.110;9.372;2023-05-11T12:25:59;12.6454854846932;;;12.625;100.0
15558;BME280;7880;50.110;9.372;2023-05-11T12:30:57;12.771546189772199;;;12.687;100.0
15558;BME280;7880;50.110;9.372;2023-05-11T12:36:02;12.448831147985766;;;12.5;100.0
15558;BME280;7880;50.110;9.372;2023-05-11T12:41:08;12.6454854846932;;;12.562;100.0
15558;BME280;7880;50.110;9.372;2023-05-11T12:46:13;12.811885653814533;;;12.687;100.0
15558;BME280;7880;50.110;9.372;2023-05-11T12:51:59;12.88247976070852;;;12.812;100.0
15558;BME280;7880;50.110;9.372;2023-05-11T12:56:47;12.958116367110051;;;12.875;100.0
15558;BME280;7880;50.110;9.372;2023-05-11T13:01:44;12.741291603964054;;;12.75;100.0
15558;BME280;7880;50.110;9.372;2023-05-11T13:06:48;12.832055392820621;;;12.812;100.0
15558;BME280;7880;50.110;9.372;2023-05-11T13:12:09;12.766503758076578;;;12.687;100.0
15558;BME280;7880;50.110;9.372;2023-05-11T13:17:06;12.842140264069894;;;12.687;100.0
15558;BME280;7880;50.110;9.372;2023-05-11T13:21:59;13.104347325168783;;;13.0;100.0
15558;BME280;7880;50.110;9.372;2023-05-11T13:27:06;13.084177523298422;;;13.062;100.0
15558;BME280;7880;50.110;9.372;2023-05-11T13:32:07;12.902649516012753;;;12.937;100.0
15558;BME280;7880;50.110;9.372;2023-05-11T13:37:12;12.937946599000133;;;12.937;100.0
15558;BME280;7880;50.110;9.372;2023-05-11T13:42:17;13.190069035068154;;;13.062;100.0
15558;BME280;7880;50.110;9.372;2023-05-11T13:47:22;13.200153947644868;;;13.125;100.0
15558;BME280;7880;50.110;9.372;2023-05-11T13:52:26;12.973243696248392;;;13.0;100.0
15558;BME280;7880;50.110;9.372;2023-05-11T13:57:31;12.973243696248392;;;12.937;100.0
15558;BME280;7880;50.110;9.372;2023-05-11T14:02:38;12.942989040591055;;;12.875;100.0
15558;BME280;7880;50.110;9.372;2023-05-11T14:07:42;12.912734395411098;;;12.875;100.0
15558;BME280;7880;50.110;9.372;2023-05-11T14:12:52;12.791715919465059;;;12.812;100.0
15558;BME280;7880;50.110;9.372;2023-05-11T14:17:55;12.842140264069894;;;12.812;100.0
15558;BME280;7880;50.110;9.372;2023-05-11T14:22:57;12.8623100100609;;;12.75;100.0
15558;BME280;7880;50.110;9.372;2023-05-11T14:28:39;12.680782463779906;;;12.625;100.0
15558;BME280;7880;50.110;9.372;2023-05-11T14:33:47;12.756418895558454;;;12.625;100.0
15558;BME280;7880;50.110;9.372;2023-05-11T14:38:51;12.695909744896927;;;12.562;100.0
15558;BME280;7880;50.110;9.372;2023-05-11T14:43:54;12.479085632512579;;;12.562;100.0
15558;BME280;7880;50.110;9.372;2023-05-11T14:48:57;12.60010367539362;;;12.5;100.0
15558;BME280;7880;50.110;9.372;2023-05-11T14:54:01;12.499255294684554;;;12.5;100.0
15558;BME280;7880;50.110;9.372;2023-05-11T14:59:05;12.413534262613393;;;12.375;100.0
15558;BME280;7880;50.110;9.372;2023-05-11T15:04:09;12.731206744356314;;;12.625;100.0
15558;BME280;7880;50.110;9.372;2023-05-11T15:09:14;12.60010367539362;;;12.5;100.0
15558;BME280;7880;50.110;9.372;2023-05-11T15:14:25;12.675740037322976;;;12.562;100.0
15558;BME280;7880;50.110;9.372;2023-05-11T15:19:25;12.353025349439122;;;12.437;100.0
15558;BME280;7880;50.110;9.372;2023-05-11T15:24:42;12.403449440840632;;;12.375;100.0
15558;BME280;7880;50.110;9.372;2023-05-11T15:29:36;12.458915974997216;;;12.437;100.0
15558;BME280;7880;50.110;9.372;2023-05-11T15:34:42;12.458915974997216;;;12.375;100.0
15558;BME280;7880;50.110;9.372;2023-05-11T15:39:48;12.438746322138467;;;12.437;100.0
15558;BME280;7880;50.110;9.372;2023-05-11T15:44:45;12.292516478174367;;;12.25;100.0
15558;BME280;7880;50.110;9.372;2023-05-11T15:49:50;12.423619085550309;;;12.312;100.0
15558;BME280;7880;50.110;9.372;2023-05-11T15:54:56;12.408491851581493;;;12.312;100.0
15558;BME280;7880;50.110;9.372;2023-05-11T16:00:01;12.277389266906539;;;12.25;100.0
15558;BME280;7880;50.110;9.372;2023-05-11T16:05:06;12.34294053465128;;;12.25;100.0
15558;BME280;7880;50.110;9.372;2023-05-11T16:10:10;12.272346863732674;;;12.25;100.0
15558;BME280;7880;50.110;9.372;2023-05-11T16:15:15;12.015184687782313;;;12.062;100.0
15558;BME280;7880;50.110;9.372;2023-05-11T16:20:17;12.257219655957305;;;12.125;100.0
15558;BME280;7880;50.110;9.372;2023-05-11T16:25:23;12.116032509697835;;;12.0;100.0
15558;BME280;7880;50.110;9.372;2023-05-11T16:30:26;11.995015137369046;;;11.937;100.0
15558;BME280;7880;50.110;9.372;2023-05-11T16:35:30;11.863913173187758;;;11.812;100.0
15558;BME280;7880;50.110;9.372;2023-05-11T16:40:35;11.929464130685664;;;11.875;100.0
15558;BME280;7880;50.110;9.372;2023-05-11T16:45:41;11.697514809668064;;;11.687;100.0
15558;BME280;7880;50.110;9.372;2023-05-11T16:50:46;11.783235139172756;;;11.687;100.0
15558;BME280;7880;50.110;9.372;2023-05-11T16:55:52;11.76306564231054;;;11.75;100.0
15558;BME280;7880;50.110;9.372;2023-05-11T17:00:56;11.682387701427796;;;11.625;100.0
15558;BME280;7880;50.110;9.372;2023-05-11T17:06:02;11.884082693333038;;;11.812;100.0
15558;BME280;7880;50.110;9.372;2023-05-11T17:11:08;11.969803205900826;;;11.875;100.0
15558;BME280;7880;50.110;9.372;2023-05-11T17:16:13;11.884082693333038;;;11.812;100.0
15558;BME280;7880;50.110;9.372;2023-05-11T17:21:18;11.843743657699088;;;11.75;100.0
15558;BME280;7880;50.110;9.372;2023-05-11T17:26:23;11.828616524138488;;;11.75;100.0
15558;BME280;7880;50.110;9.372;2023-05-11T17:31:28;11.727769034006633;;;11.75;100.0
15558;BME280;7880;50.110;9.372;2023-05-11T17:36:34;11.778192764520645;;;11.687;100.0
15558;BME280;7880;50.110;9.372;2023-05-11T17:41:37;11.596667470876127;;;11.562;100.0
15558;BME280;7880;50.110;9.372;2023-05-11T17:46:45;11.611794564273442;;;11.562;100.0
15558;BME280;7880;50.110;9.372;2023-05-11T17:51:46;11.702557179663563;;;11.625;100.0
15558;BME280;7880;50.110;9.372;2023-05-11T17:56:51;11.551286206400254;;;11.5;100.0
15558;BME280;7880;50.110;9.372;2023-05-11T18:01:58;11.495820248499513;;;11.437;100.0
15558;BME280;7880;50.110;9.372;2023-05-11T18:07:03;11.410100201010938;;;11.375;100.0
15558;BME280;7880;50.110;9.372;2023-05-11T18:12:19;11.157982901768992;;;11.25;100.0
15558;BME280;7880;50.110;9.372;2023-05-11T18:17:12;11.097474858217174;;;11.125;100.0
15558;BME280;7880;50.110;9.372;2023-05-11T18:22:22;11.12268653793726;;;11.062;100.0
15558;BME280;7880;50.110;9.372;2023-05-11T18:27:27;10.946204932691762;;;10.937;100.0
15558;BME280;7880;50.110;9.372;2023-05-11T18:32:34;11.026882193709024;;;11.0;100.0
15558;BME280;7880;50.110;9.372;2023-05-11T18:37:38;11.047051520604873;;;11.0;100.0
15558;BME280;7880;50.110;9.372;2023-05-11T18:42:51;11.25882973415428;;;11.125;100.0
15558;BME280;7880;50.110;9.372;2023-05-11T18:47:47;11.18823693926097;;;11.062;100.0
15558;BME280;7880;50.110;9.372;2023-05-11T18:53:03;11.379846086684847;;;11.187;100.0
15558;BME280;7880;50.110;9.372;2023-05-11T18:57:57;11.410100201010938;;;11.312;100.0
15558;BME280;7880;50.110;9.372;2023-05-11T19:03:03;11.40001549507142;;;11.375;100.0
15558;BME280;7880;50.110;9.372;2023-05-11T19:08:09;11.40001549507142;;;11.312;100.0
15558;BME280;7880;50.110;9.372;2023-05-11T19:13:14;11.65717586018145;;;11.5;100.0
15558;BME280;7880;50.110;9.372;2023-05-11T19:18:16;11.36471903345082;;;11.312;100.0
15558;BME280;7880;50.110;9.372;2023-05-11T19:23:28;11.284041460440495;;;11.25;100.0
15558;BME280;7880;50.110;9.372;2023-05-11T19:28:25;11.359676682954888;;;11.25;100.0
15558;BME280;7880;50.110;9.372;2023-05-11T19:33:31;11.25882973415428;;;11.187;100.0
15558;BME280;7880;50.110;9.372;2023-05-11T19:38:35;11.178152258932823;;;11.125;100.0
15558;BME280;7880;50.110;9.372;2023-05-11T19:43:39;11.147898224933305;;;11.125;100.0
15558;BME280;7880;50.110;9.372;2023-05-11T19:48:44;11.092432523146272;;;11.062;100.0
15558;BME280;7880;50.110;9.372;2023-05-11T19:53:58;11.072263185773044;;;11.0;100.0
15558;BME280;7880;50.110;9.372;2023-05-11T19:58:55;10.976458896842086;;;11.0;100.0
15558;BME280;7880;50.110;9.372;2023-05-11T20:04:03;11.072263185773044;;;11.0;100.0
15558;BME280;7880;50.110;9.372;2023-05-11T20:09:06;11.117644201411167;;;11.062;100.0
15558;BME280;7880;50.110;9.372;2023-05-11T20:14:11;10.986543553887168;;;10.937;100.0
15558;BME280;7880;50.110;9.372;2023-05-11T20:19:23;11.1932792798616;;;11.062;100.0
15558;BME280;7880;50.110;9.372;2023-05-11T20:24:22;11.087390188366408;;;11.062;100.0
15558;BME280;7880;50.110;9.372;2023-05-11T20:29:26;11.18823693926097;;;11.062;100.0
15558;BME280;7880;50.110;9.372;2023-05-11T20:34:38;11.359676682954888;;;11.312;100.0
15558;BME280;7880;50.110;9.372;2023-05-11T20:39:35;11.389930790296058;;;11.375;100.0
15558;BME280;7880;50.110;9.372;2023-05-11T20:44:43;11.379846086684847;;;11.312;100.0
15558;BME280;7880;50.110;9.372;2023-05-11T20:49:47;11.349591982836136;;;11.25;100.0
15558;BME280;7880;50.110;9.372;2023-05-11T20:54:49;11.410100201010938;;;11.375;100.0
15558;BME280;7880;50.110;9.372;2023-05-11T21:00:11;11.278999114601174;;;11.25;100.0
15558;BME280;7880;50.110;9.372;2023-05-11T21:05:01;11.26891442379565;;;11.25;100.0
15558;BME280;7880;50.110;9.372;2023-05-11T21:10:02;11.359676682954888;;;11.312;100.0
15558;BME280;7880;50.110;9.372;2023-05-11T21:15:08;11.278999114601174;;;11.25;100.0
15558;BME280;7880;50.110;9.372;2023-05-11T21:20:13;11.319337889464805;;;11.25;100.0
15558;BME280;7880;50.110;9.372;2023-05-11T21:25:23;11.349591982836136;;;11.312;100.0
15558;BME280;7880;50.110;9.372;2023-05-11T21:30:36;11.289083806570853;;;11.25;100.0
15558;BME280;7880;50.110;9.372;2023-05-11T21:35:27;11.278999114601174;;;11.25;100.0
15558;BME280;7880;50.110;9.372;2023-05-11T21:40:32;11.278999114601174;;;11.187;100.0
15558;BME280;7880;50.110;9.372;2023-05-11T21:45:36;11.243702701875009;;;11.187;100.0
15558;BME280;7880;50.110;9.372;2023-05-11T21:50:42;11.289083806570853;;;11.187;100.0
15558;BME280;7880;50.110;9.372;2023-05-11T21:55:52;11.289083806570853;;;11.25;100.0
15558;BME280;7880;50.110;9.372;2023-05-11T22:01:02;11.183194598951378;;;11.187;100.0
15558;BME280;7880;50.110;9.372;2023-05-11T22:05:56;11.147898224933305;;;11.125;100.0
15558;BME280;7880;50.110;9.372;2023-05-11T22:10:58;11.178152258932823;;;11.125;100.0
15558;BME280;7880;50.110;9.372;2023-05-11T22:16:03;11.157982901768992;;;11.062;100.0
15558;BME280;7880;50.110;9.372;2023-05-11T22:21:12;11.05209385305643;;;11.0;100.0
15558;BME280;7880;50.110;9.372;2023-05-11T22:26:11;11.082347853877582;;;11.0;100.0
15558;BME280;7880;50.110;9.372;2023-05-11T22:31:20;11.036966856574873;;;11.0;100.0
15558;BME280;7880;50.110;9.372;2023-05-11T22:36:19;11.026882193709024;;;11.0;100.0
15558;BME280;7880;50.110;9.372;2023-05-11T22:41:24;10.915950979018817;;;10.875;100.0
15558;BME280;7880;50.110;9.372;2023-05-11T22:46:29;10.845358461193973;;;10.812;100.0
15558;BME280;7880;50.110;9.372;2023-05-11T22:51:33;10.910908654425294;;;10.875;100.0
15558;BME280;7880;50.110;9.372;2023-05-11T22:56:37;10.915950979018817;;;10.875;100.0
15558;BME280;7880;50.110;9.372;2023-05-11T23:01:41;10.931077954545618;;;10.875;100.0
15558;BME280;7880;50.110;9.372;2023-05-11T23:06:45;10.830231500510127;;;10.75;100.0
15558;BME280;7880;50.110;9.372;2023-05-11T23:11:49;10.754596736381064;;;10.687;100.0
15558;BME280;7880;50.110;9.372;2023-05-11T23:16:53;10.830231500510127;;;10.812;100.0
15558;BME280;7880;50.110;9.372;2023-05-11T23:21:58;10.860485424497165;;;10.812;100.0
15558;BME280;7880;50.110;9.372;2023-05-11T23:27:03;10.794935269100824;;;10.75;100.0
15558;BME280;7880;50.110;9.372;2023-05-11T23:32:13;10.870570068154484;;;10.812;100.0
15558;BME280;7880;50.110;9.372;2023-05-11T23:37:13;10.70417359667481;;;10.687;100.0
15558;BME280;7880;50.110;9.372;2023-05-11T23:42:20;10.895781682390952;;;10.812;100.0
15558;BME280;7880;50.110;9.372;2023-05-11T23:47:23;10.794935269100824;;;10.75;100.0
15558;BME280;7880;50.110;9.372;2023-05-11T23:52:27;10.774766000412637;;;10.75;100.0
15558;BME280;7880;50.110;9.372;2023-05-11T23:57:31;10.7596390519524;;;10.687;100.0
